createdAt,value
2018-03-06T00:01:00.896Z,15.60
2018-03-06T00:03:28.346Z,9.90
2018-03-06T00:05:55.916Z,10.23
2018-03-06T00:08:23.411Z,7.97
2018-03-06T00:10:50.827Z,7.77
2018-03-06T00:13:18.333Z,11.40
2018-03-06T00:15:45.786Z,7.40
2018-03-06T00:18:13.245Z,12.50
2018-03-06T00:20:41.059Z,13.40
2018-03-06T00:23:08.516Z,23.53
2018-03-06T00:25:36.027Z,10.83
2018-03-06T00:28:03.772Z,7.93
2018-03-06T00:30:31.226Z,12.07
2018-03-06T00:32:58.727Z,11.40
2018-03-06T00:35:26.220Z,17.53
2018-03-06T00:37:53.677Z,9.03
2018-03-06T00:40:21.133Z,8.47
2018-03-06T00:42:48.613Z,12.70
2018-03-06T00:45:16.065Z,7.60
2018-03-06T00:47:43.560Z,15.00
2018-03-06T00:50:11.042Z,12.70
2018-03-06T00:52:38.522Z,11.63
2018-03-06T00:55:06.140Z,13.10
2018-03-06T00:57:33.601Z,14.80
2018-03-06T01:00:01.061Z,11.83
2018-03-06T01:02:28.533Z,13.50
2018-03-06T01:04:55.989Z,16.40
2018-03-06T01:07:23.509Z,15.30
2018-03-06T01:09:50.967Z,12.37
2018-03-06T01:12:18.441Z,16.73
2018-03-06T01:14:45.922Z,22.97
2018-03-06T01:17:13.377Z,13.80
2018-03-06T01:19:40.884Z,22.10
2018-03-06T01:22:08.353Z,17.83
2018-03-06T01:24:35.818Z,13.97
2018-03-06T01:27:03.301Z,15.87
2018-03-06T01:29:30.765Z,16.90
2018-03-06T01:31:58.261Z,13.83
2018-03-06T01:34:25.742Z,16.40
2018-03-06T01:36:53.205Z,17.20
2018-03-06T01:39:20.693Z,24.30
2018-03-06T01:41:48.162Z,11.30
2018-03-06T01:44:15.793Z,11.43
2018-03-06T01:46:43.284Z,24.73
2018-03-06T01:49:10.752Z,20.50
2018-03-06T01:51:50.148Z,12.87
2018-03-06T01:54:17.623Z,17.50
2018-03-06T01:56:45.097Z,14.00
2018-03-06T01:59:12.549Z,11.93
2018-03-06T02:01:40.033Z,9.33
2018-03-06T02:04:07.498Z,17.70
2018-03-06T02:06:34.984Z,13.77
2018-03-06T02:09:02.497Z,11.47
2018-03-06T02:11:29.990Z,15.00
2018-03-06T02:13:57.542Z,20.93
2018-03-06T02:16:25.020Z,13.37
2018-03-06T02:18:52.553Z,13.23
2018-03-06T02:21:20.005Z,15.77
2018-03-06T02:23:47.477Z,10.63
2018-03-06T02:26:14.964Z,13.97
2018-03-06T02:28:42.422Z,11.37
2018-03-06T02:31:10.153Z,12.27
2018-03-06T02:33:37.623Z,21.40
2018-03-06T02:36:05.073Z,9.87
2018-03-06T02:38:32.589Z,10.70
2018-03-06T02:41:00.041Z,15.83
2018-03-06T02:43:27.547Z,14.30
2018-03-06T02:46:06.844Z,13.07
2018-03-06T02:48:34.357Z,9.23
2018-03-06T02:51:01.817Z,12.40
2018-03-06T02:53:29.293Z,10.40
2018-03-06T02:55:59.162Z,15.00
2018-03-06T02:58:26.622Z,10.27
2018-03-06T03:00:54.129Z,10.40
2018-03-06T03:03:21.613Z,12.97
2018-03-06T03:05:49.081Z,10.70
2018-03-06T03:08:16.565Z,11.23
2018-03-06T03:10:44.044Z,10.93
2018-03-06T03:13:11.674Z,14.40
2018-03-06T03:15:39.141Z,15.47
2018-03-06T03:18:06.621Z,14.93
2018-03-06T03:20:34.102Z,11.80
2018-03-06T03:23:01.571Z,12.77
2018-03-06T03:25:29.399Z,13.83
2018-03-06T03:27:56.877Z,10.73
2018-03-06T03:30:24.620Z,13.90
2018-03-06T03:32:52.113Z,14.10
2018-03-06T03:35:19.596Z,14.97
2018-03-06T03:37:47.089Z,13.63
2018-03-06T03:40:14.549Z,19.00
2018-03-06T03:42:42.013Z,10.70
2018-03-06T03:45:09.508Z,21.47
2018-03-06T03:47:36.970Z,12.17
2018-03-06T03:50:04.640Z,16.73
2018-03-06T03:52:32.113Z,16.60
2018-03-06T03:54:59.581Z,16.10
2018-03-06T03:57:27.077Z,22.23
2018-03-06T03:59:54.548Z,15.83
2018-03-06T04:02:22.038Z,13.70
2018-03-06T04:04:49.501Z,15.20
2018-03-06T04:07:16.969Z,13.87
2018-03-06T04:09:44.453Z,12.33
2018-03-06T04:12:11.914Z,14.37
2018-03-06T04:14:39.641Z,12.17
2018-03-06T04:17:07.141Z,12.53
2018-03-06T04:19:34.605Z,18.13
2018-03-06T04:22:02.091Z,31.53
2018-03-06T04:24:29.565Z,15.63
2018-03-06T04:26:57.048Z,11.40
2018-03-06T04:29:24.513Z,11.20
2018-03-06T04:31:51.982Z,14.33
2018-03-06T04:34:19.462Z,15.20
2018-03-06T04:36:46.933Z,13.57
2018-03-06T04:39:14.756Z,20.70
2018-03-06T04:41:42.213Z,17.37
2018-03-06T04:44:09.673Z,13.03
2018-03-06T04:46:37.161Z,11.00
2018-03-06T04:49:04.617Z,12.77
2018-03-06T04:51:32.465Z,15.87
2018-03-06T04:53:59.930Z,14.20
2018-03-06T04:56:27.388Z,13.57
2018-03-06T04:58:54.873Z,12.73
2018-03-06T05:01:22.337Z,16.73
2018-03-06T05:03:49.830Z,19.90
2018-03-06T05:06:17.325Z,21.03
2018-03-06T05:08:44.792Z,18.97
2018-03-06T05:11:12.304Z,24.47
2018-03-06T05:13:39.810Z,12.63
2018-03-06T05:16:07.477Z,12.33
2018-03-06T05:18:34.950Z,18.97
2018-03-06T05:21:02.414Z,21.10
2018-03-06T05:23:29.916Z,14.77
2018-03-06T05:25:57.382Z,18.43
2018-03-06T05:28:24.905Z,21.70
2018-03-06T05:30:52.373Z,14.27
2018-03-06T05:33:20.874Z,17.80
2018-03-06T05:35:48.357Z,18.90
2018-03-06T05:38:15.839Z,17.93
2018-03-06T05:40:43.697Z,16.73
2018-03-06T05:43:11.163Z,11.77
2018-03-06T05:45:38.646Z,24.80
2018-03-06T05:48:06.153Z,21.87
2018-03-06T05:50:33.614Z,15.87
2018-03-06T05:53:01.517Z,18.73
2018-03-06T05:55:28.981Z,14.83
2018-03-06T05:57:56.460Z,15.57
2018-03-06T06:00:23.946Z,18.83
2018-03-06T06:02:51.429Z,21.47
2018-03-06T06:05:18.917Z,19.73
2018-03-06T06:07:46.407Z,23.17
2018-03-06T06:10:13.877Z,17.73
2018-03-06T06:12:41.377Z,24.77
2018-03-06T06:15:08.833Z,23.03
2018-03-06T06:17:36.512Z,27.93
2018-03-06T06:20:03.957Z,20.70
2018-03-06T06:22:31.501Z,22.10
2018-03-06T06:24:58.985Z,27.90
2018-03-06T06:27:26.430Z,25.23
2018-03-06T06:29:53.900Z,23.97
2018-03-06T06:32:21.357Z,28.00
2018-03-06T06:34:48.805Z,21.83
2018-03-06T06:37:16.279Z,24.20
2018-03-06T06:39:43.744Z,24.47
2018-03-06T06:42:11.605Z,36.67
2018-03-06T06:44:39.064Z,25.37
2018-03-06T06:47:06.509Z,28.83
2018-03-06T06:49:33.988Z,35.70
2018-03-06T06:52:01.481Z,27.40
2018-03-06T06:54:29.153Z,30.10
2018-03-06T06:56:56.597Z,30.17
2018-03-06T06:59:24.047Z,36.73
2018-03-06T07:01:51.518Z,36.97
2018-03-06T07:04:18.964Z,45.63
2018-03-06T07:06:46.449Z,39.30
2018-03-06T07:09:13.954Z,40.63
2018-03-06T07:11:41.421Z,37.90
2018-03-06T07:14:08.890Z,36.93
2018-03-06T07:16:36.334Z,38.43
2018-03-06T07:19:03.813Z,32.10
2018-03-06T07:21:31.262Z,42.77
2018-03-06T07:23:58.706Z,50.90
2018-03-06T07:26:26.177Z,48.40
2018-03-06T07:28:53.625Z,33.87
2018-03-06T07:31:21.100Z,39.23
2018-03-06T07:33:48.565Z,48.80
2018-03-06T07:36:16.062Z,44.83
2018-03-06T07:38:43.517Z,32.87
2018-03-06T07:41:10.957Z,38.13
2018-03-06T07:43:38.461Z,34.87
2018-03-06T07:46:05.913Z,39.07
2018-03-06T07:48:33.354Z,47.70
2018-03-06T07:51:00.833Z,36.43
2018-03-06T07:53:28.278Z,35.03
2018-03-06T07:55:55.769Z,37.37
2018-03-06T07:58:23.249Z,38.90
2018-03-06T08:00:50.718Z,44.07
2018-03-06T08:03:18.194Z,45.93
2018-03-06T08:05:45.645Z,44.97
2018-03-06T08:08:13.213Z,44.20
2018-03-06T08:10:40.653Z,46.60
2018-03-06T08:13:08.101Z,40.30
2018-03-06T08:15:35.580Z,43.80
2018-03-06T08:18:03.021Z,36.27
2018-03-06T08:20:30.597Z,39.30
2018-03-06T08:22:58.046Z,42.17
2018-03-06T08:25:25.497Z,41.90
2018-03-06T08:27:52.962Z,38.90
2018-03-06T08:30:20.439Z,43.83
2018-03-06T08:32:47.918Z,48.37
2018-03-06T08:35:15.374Z,50.87
2018-03-06T08:37:42.849Z,45.33
2018-03-06T08:40:10.315Z,55.67
2018-03-06T08:42:37.764Z,56.43
2018-03-06T08:45:05.409Z,72.77
2018-03-06T08:47:32.853Z,71.00
2018-03-06T08:50:00.315Z,56.53
2018-03-06T08:52:27.777Z,57.00
2018-03-06T08:54:55.222Z,60.33
2018-03-06T08:57:22.854Z,61.53
2018-03-06T08:59:50.319Z,67.17
2018-03-06T09:02:17.768Z,63.17
2018-03-06T09:04:45.264Z,66.77
2018-03-06T09:07:12.721Z,61.63
2018-03-06T09:09:40.458Z,56.73
2018-03-06T09:12:07.943Z,59.03
2018-03-06T09:14:35.384Z,70.00
2018-03-06T09:17:02.845Z,71.47
2018-03-06T09:19:30.309Z,70.43
2018-03-06T09:21:57.797Z,76.30
2018-03-06T09:24:25.250Z,125.63
2018-03-06T09:26:52.716Z,94.83
2018-03-06T09:29:20.205Z,87.60
2018-03-06T09:31:47.655Z,73.83
2018-03-06T09:34:15.297Z,82.07
2018-03-06T09:36:42.778Z,91.20
2018-03-06T09:39:10.236Z,82.03
2018-03-06T09:41:37.701Z,84.50
2018-03-06T09:44:05.149Z,77.67
2018-03-06T09:46:32.763Z,76.20
2018-03-06T09:49:00.212Z,86.20
2018-03-06T09:51:27.653Z,88.67
2018-03-06T09:53:56.085Z,74.60
2018-03-06T09:56:23.541Z,83.87
2018-03-06T09:58:51.033Z,82.40
2018-03-06T10:01:18.472Z,85.33
2018-03-06T10:03:45.929Z,89.90
2018-03-06T10:06:13.389Z,90.93
2018-03-06T10:08:40.830Z,98.57
2018-03-06T10:11:08.329Z,88.17
2018-03-06T10:13:35.796Z,74.77
2018-03-06T10:16:03.233Z,83.73
2018-03-06T10:18:30.697Z,82.53
2018-03-06T10:20:58.132Z,82.73
2018-03-06T10:23:25.669Z,87.87
2018-03-06T10:25:53.117Z,89.33
2018-03-06T10:28:20.581Z,93.07
2018-03-06T10:30:48.049Z,77.10
2018-03-06T10:33:15.500Z,90.27
2018-03-06T10:35:43.089Z,77.43
2018-03-06T10:38:10.529Z,82.27
2018-03-06T10:40:37.969Z,89.77
2018-03-06T10:43:05.442Z,85.03
2018-03-06T10:45:32.890Z,88.07
2018-03-06T10:48:00.519Z,88.60
2018-03-06T10:50:27.970Z,85.73
2018-03-06T10:52:55.409Z,84.53
2018-03-06T10:55:22.873Z,88.20
2018-03-06T10:57:50.335Z,88.67
2018-03-06T11:00:23.697Z,96.20
2018-03-06T11:02:53.081Z,90.93
2018-03-06T11:05:20.541Z,85.23
2018-03-06T11:07:48.002Z,93.97
2018-03-06T11:10:15.444Z,89.53
2018-03-06T11:12:43.090Z,95.47
2018-03-06T11:15:10.545Z,88.70
2018-03-06T11:17:38.005Z,85.57
2018-03-06T11:20:05.470Z,99.67
2018-03-06T11:22:32.921Z,108.00
2018-03-06T11:25:00.664Z,101.20
2018-03-06T11:27:28.104Z,95.70
2018-03-06T11:29:55.557Z,90.20
2018-03-06T11:32:23.017Z,88.50
2018-03-06T11:34:50.482Z,105.40
2018-03-06T11:37:17.957Z,101.53
2018-03-06T11:39:45.413Z,105.10
2018-03-06T11:42:13.047Z,104.37
2018-03-06T11:44:40.497Z,102.53
2018-03-06T11:47:07.949Z,119.00
2018-03-06T11:49:35.437Z,106.47
2018-03-06T11:52:02.893Z,95.93
2018-03-06T11:54:30.610Z,102.33
2018-03-06T11:56:58.100Z,105.30
2018-03-06T11:59:25.583Z,110.53
2018-03-06T12:01:53.035Z,106.63
2018-03-06T12:04:20.494Z,102.87
2018-03-06T12:06:48.061Z,114.77
2018-03-06T12:09:15.509Z,106.70
2018-03-06T12:11:42.978Z,107.37
2018-03-06T12:14:10.442Z,104.90
2018-03-06T12:16:37.907Z,105.87
2018-03-06T12:19:05.613Z,107.43
2018-03-06T12:21:33.066Z,95.87
2018-03-06T12:24:00.505Z,94.60
2018-03-06T12:26:27.981Z,103.87
2018-03-06T12:28:55.440Z,94.23
2018-03-06T12:31:22.937Z,95.23
2018-03-06T12:33:50.390Z,93.77
2018-03-06T12:36:17.847Z,88.47
2018-03-06T12:38:45.321Z,94.80
2018-03-06T12:41:12.774Z,101.87
2018-03-06T12:43:40.389Z,95.20
2018-03-06T12:46:07.842Z,83.83
2018-03-06T12:48:35.293Z,92.97
2018-03-06T12:51:02.770Z,89.80
2018-03-06T12:53:30.221Z,98.67
2018-03-06T12:55:57.781Z,101.83
2018-03-06T12:58:25.237Z,96.67
2018-03-06T13:00:52.694Z,80.43
2018-03-06T13:03:20.159Z,83.93
2018-03-06T13:05:47.609Z,81.90
2018-03-06T13:08:15.285Z,77.47
2018-03-06T13:10:42.740Z,90.23
2018-03-06T13:13:10.201Z,75.20
2018-03-06T13:15:37.667Z,78.40
2018-03-06T13:18:05.121Z,76.30
2018-03-06T13:20:32.841Z,78.87
2018-03-06T13:23:00.289Z,90.20
2018-03-06T13:25:27.753Z,85.77
2018-03-06T13:27:55.221Z,82.30
2018-03-06T13:30:22.715Z,89.93
2018-03-06T13:32:50.489Z,85.23
2018-03-06T13:35:17.945Z,83.73
2018-03-06T13:37:45.480Z,84.97
2018-03-06T13:40:12.953Z,87.83
2018-03-06T13:42:40.402Z,85.10
2018-03-06T13:45:07.911Z,94.67
2018-03-06T13:47:35.361Z,80.67
2018-03-06T13:50:02.816Z,89.50
2018-03-06T13:52:30.285Z,81.87
2018-03-06T13:54:57.736Z,74.53
2018-03-06T13:57:25.237Z,75.57
2018-03-06T13:59:52.685Z,78.90
2018-03-06T14:02:20.133Z,82.80
2018-03-06T14:04:47.602Z,77.80
2018-03-06T14:07:15.056Z,84.30
2018-03-06T14:09:42.749Z,74.47
2018-03-06T14:12:10.206Z,71.43
2018-03-06T14:14:37.665Z,71.10
2018-03-06T14:17:05.142Z,83.07
2018-03-06T14:19:32.585Z,77.13
2018-03-06T14:22:00.253Z,83.40
2018-03-06T14:24:27.710Z,73.10
2018-03-06T14:26:55.185Z,84.00
2018-03-06T14:29:22.673Z,74.93
2018-03-06T14:31:50.121Z,84.97
2018-03-06T14:34:17.609Z,93.03
2018-03-06T14:36:45.137Z,72.90
2018-03-06T14:39:12.586Z,79.80
2018-03-06T14:41:40.054Z,73.93
2018-03-06T14:44:07.523Z,79.20
2018-03-06T14:46:35.193Z,78.03
2018-03-06T14:49:02.649Z,80.70
2018-03-06T14:51:30.131Z,76.53
2018-03-06T14:53:57.605Z,73.40
2018-03-06T14:56:25.069Z,70.73
2018-03-06T14:58:52.554Z,83.17
2018-03-06T15:01:20.022Z,73.77
2018-03-06T15:03:47.469Z,75.30
2018-03-06T15:06:14.989Z,72.37
2018-03-06T15:08:42.489Z,68.17
2018-03-06T15:11:09.960Z,72.87
2018-03-06T15:13:37.410Z,79.27
2018-03-06T15:16:04.869Z,78.10
2018-03-06T15:18:32.342Z,76.03
2018-03-06T15:20:59.810Z,85.30
2018-03-06T15:23:27.301Z,77.93
2018-03-06T15:25:54.749Z,65.70
2018-03-06T15:28:22.202Z,79.50
2018-03-06T15:30:49.674Z,73.97
2018-03-06T15:33:17.149Z,68.73
2018-03-06T15:35:44.630Z,78.13
2018-03-06T15:38:12.113Z,70.23
2018-03-06T15:40:39.562Z,75.60
2018-03-06T15:43:07.057Z,65.10
2018-03-06T15:45:34.501Z,70.53
2018-03-06T15:48:01.987Z,71.63
2018-03-06T15:50:29.453Z,64.13
2018-03-06T15:52:56.914Z,79.83
2018-03-06T15:55:24.395Z,73.37
2018-03-06T15:57:51.845Z,73.23
2018-03-06T16:00:19.490Z,68.60
2018-03-06T16:02:46.946Z,74.83
2018-03-06T16:05:14.421Z,68.60
2018-03-06T16:07:41.917Z,75.27
2018-03-06T16:10:09.369Z,70.17
2018-03-06T16:12:36.873Z,81.20
2018-03-06T16:15:04.334Z,77.73
2018-03-06T16:17:31.786Z,77.77
2018-03-06T16:19:59.277Z,63.10
2018-03-06T16:22:26.727Z,72.57
2018-03-06T16:24:54.201Z,75.20
2018-03-06T16:27:21.673Z,69.37
2018-03-06T16:29:49.125Z,75.10
2018-03-06T16:32:16.592Z,65.67
2018-03-06T16:34:44.049Z,80.97
2018-03-06T16:37:11.638Z,93.20
2018-03-06T16:39:39.089Z,87.00
2018-03-06T16:42:06.547Z,102.23
2018-03-06T16:44:34.022Z,93.93
2018-03-06T16:47:01.478Z,74.13
2018-03-06T16:49:31.244Z,94.63
2018-03-06T16:51:58.695Z,82.57
2018-03-06T16:54:26.165Z,68.50
2018-03-06T16:56:53.637Z,77.47
2018-03-06T16:59:21.106Z,82.23
2018-03-06T17:01:48.789Z,71.57
2018-03-06T17:04:16.234Z,66.90
2018-03-06T17:06:43.701Z,68.13
2018-03-06T17:09:11.173Z,67.30
2018-03-06T17:11:38.709Z,70.53
2018-03-06T17:14:06.349Z,68.33
2018-03-06T17:16:33.869Z,80.93
2018-03-06T17:19:01.326Z,79.97
2018-03-06T17:21:28.789Z,68.40
2018-03-06T17:23:56.237Z,86.27
2018-03-06T17:26:23.853Z,75.77
2018-03-06T17:28:51.305Z,77.50
2018-03-06T17:31:18.765Z,73.87
2018-03-06T17:33:46.242Z,90.13
2018-03-06T17:36:13.686Z,87.87
2018-03-06T17:38:41.165Z,76.87
2018-03-06T17:41:08.705Z,84.17
2018-03-06T17:43:36.151Z,89.60
2018-03-06T17:46:03.614Z,78.80
2018-03-06T17:48:31.085Z,84.87
2018-03-06T17:50:59.017Z,83.47
2018-03-06T17:53:26.468Z,88.67
2018-03-06T17:55:53.930Z,86.03
2018-03-06T17:58:21.421Z,115.13
2018-03-06T18:00:48.861Z,85.67
2018-03-06T18:03:16.366Z,88.30
2018-03-06T18:05:43.810Z,88.50
2018-03-06T18:08:11.266Z,101.03
2018-03-06T18:10:38.730Z,84.23
2018-03-06T18:13:06.197Z,92.00
2018-03-06T18:15:33.698Z,104.67
2018-03-06T18:18:01.152Z,88.43
2018-03-06T18:20:28.612Z,93.70
2018-03-06T18:22:56.104Z,89.63
2018-03-06T18:25:23.935Z,90.10
2018-03-06T18:27:51.757Z,89.53
2018-03-06T18:30:19.233Z,90.37
2018-03-06T18:32:46.690Z,101.93
2018-03-06T18:35:14.190Z,85.90
2018-03-06T18:37:41.633Z,86.27
2018-03-06T18:40:09.314Z,87.50
2018-03-06T18:42:36.777Z,87.37
2018-03-06T18:45:04.266Z,77.20
2018-03-06T18:47:31.729Z,79.60
2018-03-06T18:50:01.911Z,76.20
2018-03-06T18:52:29.410Z,75.73
2018-03-06T18:54:56.858Z,76.20
2018-03-06T18:57:24.317Z,73.50
2018-03-06T19:03:06.575Z,76.00
2018-03-06T19:05:45.959Z,69.13
2018-03-06T19:08:13.409Z,83.03
2018-03-06T19:10:41.211Z,68.60
2018-03-06T19:13:08.656Z,63.70
2018-03-06T19:15:36.119Z,62.73
2018-03-06T19:18:03.630Z,62.50
2018-03-06T19:20:31.069Z,57.30
2018-03-06T19:22:58.514Z,57.90
2018-03-06T19:25:25.986Z,71.03
2018-03-06T19:27:53.433Z,62.97
2018-03-06T19:30:20.937Z,59.17
2018-03-06T19:32:48.383Z,54.50
2018-03-06T19:35:15.830Z,57.90
2018-03-06T19:37:43.301Z,59.33
2018-03-06T19:40:10.773Z,59.93
2018-03-06T19:42:38.285Z,55.13
2018-03-06T19:45:05.738Z,52.87
2018-03-06T19:47:33.553Z,50.20
2018-03-06T19:50:00.999Z,56.37
2018-03-06T19:52:28.499Z,57.83
2018-03-06T19:54:55.974Z,53.60
2018-03-06T19:57:23.419Z,46.47
2018-03-06T19:59:51.223Z,45.80
2018-03-06T20:02:18.669Z,42.87
2018-03-06T20:04:46.141Z,47.27
2018-03-06T20:07:13.613Z,37.27
2018-03-06T20:09:41.058Z,59.77
2018-03-06T20:12:08.796Z,48.53
2018-03-06T20:14:41.769Z,49.63
2018-03-06T20:17:09.274Z,49.33
2018-03-06T20:19:40.622Z,49.60
2018-03-06T20:22:08.818Z,51.23
2018-03-06T20:24:41.822Z,47.40
2018-03-06T20:27:09.296Z,46.17
2018-03-06T20:29:36.762Z,56.30
2018-03-06T20:32:09.773Z,45.90
2018-03-06T20:34:37.249Z,53.00
2018-03-06T20:37:04.710Z,58.33
2018-03-06T20:39:37.710Z,57.97
2018-03-06T20:42:06.404Z,63.07
2018-03-06T20:44:33.874Z,71.50
2018-03-06T20:47:06.938Z,59.13
2018-03-06T20:49:34.412Z,69.37
2018-03-06T20:52:01.853Z,55.13
2018-03-06T20:57:28.385Z,59.80
2018-03-06T20:59:55.861Z,57.17
2018-03-06T21:02:23.318Z,52.53
2018-03-06T21:04:50.766Z,61.63
2018-03-06T21:07:18.229Z,63.33
2018-03-06T21:09:45.674Z,59.67
2018-03-06T21:12:13.281Z,69.77
2018-03-06T21:14:40.724Z,65.67
2018-03-06T21:17:08.169Z,63.57
2018-03-06T21:19:35.649Z,61.73
2018-03-06T21:22:03.092Z,55.03
2018-03-06T21:24:30.825Z,54.07
2018-03-06T21:26:58.273Z,61.40
2018-03-06T21:29:25.720Z,54.13
2018-03-06T21:31:53.198Z,55.67
2018-03-06T21:34:20.661Z,56.73
2018-03-06T21:36:48.142Z,62.70
2018-03-06T21:39:15.598Z,67.67
2018-03-06T21:41:43.048Z,52.47
2018-03-06T21:44:10.513Z,64.60
2018-03-06T21:46:37.959Z,65.73
2018-03-06T21:49:05.732Z,82.73
2018-03-06T21:51:33.201Z,60.53
2018-03-06T21:54:00.662Z,63.90
2018-03-06T21:56:28.146Z,69.40
2018-03-06T21:58:55.664Z,59.17
2018-03-06T22:01:23.105Z,59.63
2018-03-06T22:03:50.598Z,69.03
2018-03-06T22:06:18.057Z,72.63
2018-03-06T22:08:45.517Z,59.67
2018-03-06T22:11:13.170Z,53.17
2018-03-06T22:13:40.621Z,61.03
2018-03-06T22:16:08.075Z,57.90
2018-03-06T22:18:35.608Z,55.27
2018-03-06T22:21:03.035Z,63.63
2018-03-06T22:23:30.481Z,58.37
2018-03-06T22:25:57.944Z,61.77
2018-03-06T22:28:25.385Z,73.60
2018-03-06T22:30:52.874Z,60.83
2018-03-06T22:33:20.319Z,59.13
2018-03-06T22:35:47.769Z,58.50
2018-03-06T22:38:15.249Z,66.43
2018-03-06T22:40:42.689Z,64.63
2018-03-06T22:43:10.154Z,63.03
2018-03-06T22:45:37.597Z,59.57
2018-03-06T22:48:05.225Z,58.33
2018-03-06T22:50:32.674Z,60.90
2018-03-06T22:53:00.137Z,62.53
2018-03-06T22:55:27.605Z,63.27
2018-03-06T22:57:55.046Z,57.40
2018-03-06T23:00:22.517Z,52.63
2018-03-06T23:02:50.004Z,59.80
2018-03-06T23:05:17.423Z,62.53
2018-03-06T23:07:44.889Z,57.97
2018-03-06T23:10:12.365Z,51.80
2018-03-06T23:12:40.030Z,52.60
2018-03-06T23:15:07.481Z,57.63
2018-03-06T23:17:34.950Z,51.83
2018-03-06T23:20:02.435Z,56.60
2018-03-06T23:22:29.877Z,54.03
2018-03-06T23:24:57.574Z,46.80
2018-03-06T23:27:25.062Z,46.43
2018-03-06T23:29:52.505Z,43.63
2018-03-06T23:32:19.969Z,45.13
2018-03-06T23:34:47.453Z,59.07
2018-03-06T23:37:14.936Z,53.77
2018-03-06T23:39:42.393Z,46.87
2018-03-06T23:42:09.849Z,59.97
2018-03-06T23:44:37.332Z,48.47
2018-03-06T23:47:04.780Z,44.07
2018-03-06T23:49:32.262Z,48.83
2018-03-06T23:51:59.701Z,39.73
2018-03-06T23:54:27.165Z,39.23
2018-03-06T23:56:54.629Z,45.60
2018-03-06T23:59:22.074Z,40.10
